createdAt,value
2017-07-16T00:00:24.720Z,79.9
2017-07-16T00:01:26.063Z,80.2
2017-07-16T00:02:27.394Z,80.6
2017-07-16T00:03:28.743Z,80.6
2017-07-16T00:04:30.093Z,80.0
2017-07-16T00:05:31.423Z,79.8
2017-07-16T00:06:32.757Z,80.0
2017-07-16T00:07:34.100Z,79.8
2017-07-16T00:08:35.444Z,79.8
2017-07-16T00:09:36.779Z,80.7
2017-07-16T00:10:38.134Z,80.4
2017-07-16T00:11:39.468Z,80.2
2017-07-16T00:12:41.342Z,80.2
2017-07-16T00:13:42.676Z,79.4
2017-07-16T00:14:44.010Z,80.5
2017-07-16T00:15:45.345Z,79.9
2017-07-16T00:16:46.692Z,81.0
2017-07-16T00:17:48.036Z,80.2
2017-07-16T00:18:49.374Z,79.9
2017-07-16T00:19:50.716Z,80.2
2017-07-16T00:20:52.056Z,79.1
2017-07-16T00:21:53.387Z,79.8
2017-07-16T00:22:54.725Z,80.2
2017-07-16T00:23:56.074Z,79.1
2017-07-16T00:24:57.418Z,78.3
2017-07-16T00:25:58.765Z,79.0
2017-07-16T00:27:00.097Z,79.1
2017-07-16T00:28:01.431Z,79.4
2017-07-16T00:29:03.472Z,79.5
2017-07-16T00:30:04.814Z,80.9
2017-07-16T00:31:06.158Z,80.2
2017-07-16T00:32:07.506Z,79.9
2017-07-16T00:33:08.844Z,80.4
2017-07-16T00:34:10.203Z,80.2
2017-07-16T00:35:11.512Z,80.1
2017-07-16T00:36:13.729Z,80.1
2017-07-16T00:37:15.066Z,79.9
2017-07-16T00:38:16.399Z,80.2
2017-07-16T00:39:17.746Z,79.1
2017-07-16T00:40:19.082Z,79.1
2017-07-16T00:41:21.246Z,79.0
2017-07-16T00:42:22.578Z,79.9
2017-07-16T00:43:23.915Z,79.1
2017-07-16T00:44:25.251Z,79.3
2017-07-16T00:45:26.586Z,79.9
2017-07-16T00:46:27.922Z,79.5
2017-07-16T00:47:30.185Z,80.0
2017-07-16T00:48:31.514Z,79.8
2017-07-16T00:49:32.862Z,80.1
2017-07-16T00:50:34.192Z,79.7
2017-07-16T00:51:35.539Z,78.9
2017-07-16T00:52:36.879Z,81.0
2017-07-16T00:53:39.078Z,80.3
2017-07-16T00:54:40.429Z,80.0
2017-07-16T00:55:41.759Z,79.5
2017-07-16T00:56:43.094Z,79.5
2017-07-16T00:57:44.445Z,80.1
2017-07-16T00:58:45.778Z,79.9
2017-07-16T00:59:47.737Z,80.8
2017-07-16T01:00:49.072Z,78.8
2017-07-16T01:01:50.407Z,79.4
2017-07-16T01:02:51.743Z,80.1
2017-07-16T01:03:53.093Z,80.4
2017-07-16T01:04:54.433Z,80.1
2017-07-16T01:05:55.808Z,80.5
2017-07-16T01:06:57.149Z,80.3
2017-07-16T01:07:58.496Z,79.3
2017-07-16T01:08:59.841Z,80.0
2017-07-16T01:10:01.182Z,80.2
2017-07-16T01:11:02.521Z,80.7
2017-07-16T01:12:03.861Z,79.6
2017-07-16T01:13:05.203Z,78.9
2017-07-16T01:14:06.545Z,81.3
2017-07-16T01:15:08.291Z,80.4
2017-07-16T01:16:09.645Z,77.9
2017-07-16T01:17:10.985Z,78.6
2017-07-16T01:18:12.332Z,78.8
2017-07-16T01:19:13.667Z,79.3
2017-07-16T01:20:15.036Z,78.6
2017-07-16T01:21:16.369Z,78.9
2017-07-16T01:22:17.708Z,78.1
2017-07-16T01:23:19.044Z,78.6
2017-07-16T01:24:20.384Z,78.5
2017-07-16T01:25:21.726Z,78.0
2017-07-16T01:26:23.067Z,78.2
2017-07-16T01:27:24.412Z,78.8
2017-07-16T01:28:25.844Z,78.4
2017-07-16T01:29:27.179Z,78.5
2017-07-16T01:30:28.526Z,77.9
2017-07-16T01:31:29.866Z,76.9
2017-07-16T01:32:31.696Z,78.2
2017-07-16T01:33:33.048Z,77.9
2017-07-16T01:34:34.382Z,78.0
2017-07-16T01:35:35.727Z,77.0
2017-07-16T01:36:37.063Z,77.0
2017-07-16T01:37:38.398Z,76.2
2017-07-16T01:38:39.749Z,76.2
2017-07-16T01:39:41.085Z,76.7
2017-07-16T01:40:42.420Z,75.9
2017-07-16T01:41:43.756Z,76.8
2017-07-16T01:42:45.658Z,76.2
2017-07-16T01:43:47.006Z,76.3
2017-07-16T01:44:48.336Z,76.9
2017-07-16T01:45:49.676Z,76.4
2017-07-16T01:46:51.020Z,76.2
2017-07-16T01:47:52.351Z,76.4
2017-07-16T01:48:53.698Z,76.4
2017-07-16T01:49:55.045Z,76.8
2017-07-16T01:50:56.377Z,77.1
2017-07-16T01:51:57.727Z,77.0
2017-07-16T01:52:59.061Z,78.0
2017-07-16T01:54:00.396Z,77.2
2017-07-16T01:55:01.733Z,77.1
2017-07-16T01:56:03.067Z,76.7
2017-07-16T01:57:04.413Z,76.2
2017-07-16T01:58:06.527Z,77.0
2017-07-16T01:59:07.861Z,76.7
2017-07-16T02:00:09.197Z,77.0
2017-07-16T02:01:10.537Z,77.9
2017-07-16T02:02:11.868Z,77.9
2017-07-16T02:03:13.205Z,77.7
2017-07-16T02:04:14.541Z,78.2
2017-07-16T02:05:15.888Z,78.0
2017-07-16T02:06:18.033Z,78.5
2017-07-16T02:07:19.368Z,78.6
2017-07-16T02:08:20.721Z,78.1
2017-07-16T02:09:22.062Z,79.0
2017-07-16T02:10:23.409Z,78.8
2017-07-16T02:11:24.745Z,77.6
2017-07-16T02:12:26.092Z,78.4
2017-07-16T02:13:28.775Z,78.7
2017-07-16T02:14:30.111Z,78.8
2017-07-16T02:15:31.446Z,78.6
2017-07-16T02:16:32.795Z,78.5
2017-07-16T02:17:34.135Z,79.2
2017-07-16T02:18:36.175Z,78.8
2017-07-16T02:19:37.522Z,78.5
2017-07-16T02:20:38.854Z,79.2
2017-07-16T02:21:40.192Z,78.2
2017-07-16T02:22:41.534Z,78.8
2017-07-16T02:23:49.563Z,78.9
2017-07-16T02:24:51.555Z,78.5
2017-07-16T02:25:52.896Z,79.1
2017-07-16T02:26:54.237Z,79.6
2017-07-16T02:27:55.580Z,79.2
2017-07-16T02:28:56.916Z,79.2
2017-07-16T02:29:58.256Z,79.0
2017-07-16T02:30:59.595Z,79.4
2017-07-16T02:32:00.961Z,78.9
2017-07-16T02:33:02.278Z,79.9
2017-07-16T02:34:03.624Z,79.5
2017-07-16T02:35:04.966Z,80.0
2017-07-16T02:36:06.311Z,79.7
2017-07-16T02:37:07.648Z,79.6
2017-07-16T02:38:08.988Z,80.1
2017-07-16T02:39:10.329Z,80.3
2017-07-16T02:40:11.669Z,79.7
2017-07-16T02:41:13.011Z,80.0
2017-07-16T02:42:14.354Z,80.6
2017-07-16T02:43:15.693Z,80.0
2017-07-16T02:44:17.663Z,79.9
2017-07-16T02:45:19.005Z,79.1
2017-07-16T02:46:20.345Z,79.6
2017-07-16T02:47:21.684Z,79.7
2017-07-16T02:48:23.023Z,79.6
2017-07-16T02:49:24.372Z,80.5
2017-07-16T02:50:25.712Z,80.3
2017-07-16T02:51:27.053Z,80.4
2017-07-16T02:52:28.389Z,79.2
2017-07-16T02:53:29.738Z,79.9
2017-07-16T02:54:31.080Z,79.7
2017-07-16T02:55:32.420Z,79.7
2017-07-16T02:56:34.261Z,80.0
2017-07-16T02:57:35.592Z,80.3
2017-07-16T02:58:36.936Z,78.1
2017-07-16T02:59:38.846Z,78.9
2017-07-16T03:00:40.186Z,78.8
2017-07-16T03:01:41.529Z,78.7
2017-07-16T03:02:42.869Z,78.9
2017-07-16T03:03:44.207Z,79.1
2017-07-16T03:04:45.544Z,76.6
2017-07-16T03:05:46.885Z,76.4
2017-07-16T03:06:48.826Z,77.0
2017-07-16T03:07:50.164Z,77.7
2017-07-16T03:08:51.502Z,78.0
2017-07-16T03:09:52.850Z,77.9
2017-07-16T03:10:54.202Z,76.6
2017-07-16T03:11:55.528Z,76.9
2017-07-16T03:12:56.867Z,77.2
2017-07-16T03:13:58.208Z,76.9
2017-07-16T03:14:59.547Z,78.1
2017-07-16T03:16:00.886Z,78.7
2017-07-16T03:17:02.226Z,77.3
2017-07-16T03:18:03.567Z,77.4
2017-07-16T03:19:04.907Z,76.8
2017-07-16T03:20:06.248Z,77.5
2017-07-16T03:21:07.587Z,76.5
2017-07-16T03:22:08.930Z,76.8
2017-07-16T03:23:11.165Z,76.9
2017-07-16T03:24:12.505Z,75.3
2017-07-16T03:25:13.850Z,76.1
2017-07-16T03:26:15.187Z,76.3
2017-07-16T03:27:16.541Z,77.0
2017-07-16T03:28:17.875Z,75.8
2017-07-16T03:29:19.215Z,75.4
2017-07-16T03:30:20.558Z,75.5
2017-07-16T03:31:21.898Z,75.3
2017-07-16T03:32:23.240Z,76.3
2017-07-16T03:33:24.589Z,76.5
2017-07-16T03:34:25.931Z,76.7
2017-07-16T03:35:27.272Z,76.4
2017-07-16T03:36:28.613Z,76.9
2017-07-16T03:37:29.955Z,76.4
2017-07-16T03:38:31.301Z,76.5
2017-07-16T03:39:32.644Z,77.4
2017-07-16T03:40:33.985Z,76.8
2017-07-16T03:41:35.331Z,76.0
2017-07-16T03:42:37.317Z,76.4
2017-07-16T03:43:38.700Z,76.5
2017-07-16T03:44:40.005Z,76.0
2017-07-16T03:45:41.351Z,76.5
2017-07-16T03:46:42.695Z,76.6
2017-07-16T03:47:44.036Z,76.8
2017-07-16T03:48:45.402Z,77.0
2017-07-16T03:49:46.749Z,77.5
2017-07-16T03:50:48.092Z,77.3
2017-07-16T03:51:49.441Z,76.0
2017-07-16T03:52:50.787Z,76.5
2017-07-16T03:53:52.137Z,75.9
2017-07-16T03:54:53.482Z,77.1
2017-07-16T03:55:54.823Z,75.9
2017-07-16T03:56:56.165Z,75.5
2017-07-16T03:57:57.511Z,75.3
2017-07-16T03:58:58.851Z,75.8
2017-07-16T04:00:00.196Z,75.5
2017-07-16T04:01:01.563Z,75.3
2017-07-16T04:02:02.911Z,76.1
2017-07-16T04:03:04.254Z,76.2
2017-07-16T04:04:05.597Z,76.6
2017-07-16T04:05:06.938Z,76.0
2017-07-16T04:06:08.283Z,76.2
2017-07-16T04:07:09.625Z,75.4
2017-07-16T04:08:10.972Z,75.6
2017-07-16T04:09:12.315Z,74.6
2017-07-16T04:10:13.659Z,75.3
2017-07-16T04:11:15.008Z,75.7
2017-07-16T04:12:16.347Z,75.2
2017-07-16T04:13:17.698Z,75.1
2017-07-16T04:14:19.044Z,75.3
2017-07-16T04:15:20.391Z,74.6
2017-07-16T04:16:21.735Z,74.3
2017-07-16T04:17:23.076Z,74.9
2017-07-16T04:18:24.416Z,74.9
2017-07-16T04:19:26.483Z,74.2
2017-07-16T04:20:27.827Z,74.8
2017-07-16T04:21:29.173Z,74.8
2017-07-16T04:22:30.517Z,75.0
2017-07-16T04:23:32.817Z,74.9
2017-07-16T04:24:34.165Z,74.6
2017-07-16T04:25:35.508Z,75.2
2017-07-16T04:26:36.851Z,74.7
2017-07-16T04:27:38.195Z,74.6
2017-07-16T04:28:39.540Z,74.6
2017-07-16T04:29:40.883Z,74.5
2017-07-16T04:30:42.226Z,75.2
2017-07-16T04:31:43.570Z,74.5
2017-07-16T04:32:45.524Z,74.6
2017-07-16T04:33:46.871Z,74.2
2017-07-16T04:34:48.221Z,74.5
2017-07-16T04:35:49.563Z,74.8
2017-07-16T04:36:50.908Z,74.5
2017-07-16T04:37:52.251Z,74.9
2017-07-16T04:38:53.588Z,75.2
2017-07-16T04:39:54.935Z,74.4
2017-07-16T04:40:56.275Z,74.9
2017-07-16T04:41:57.618Z,75.4
2017-07-16T04:42:58.978Z,74.0
2017-07-16T04:44:00.325Z,74.8
2017-07-16T04:45:01.668Z,76.3
2017-07-16T04:46:03.012Z,76.0
2017-07-16T04:47:04.352Z,74.4
2017-07-16T04:48:05.694Z,74.3
2017-07-16T04:49:07.079Z,74.5
2017-07-16T04:50:08.383Z,75.1
2017-07-16T04:51:09.732Z,75.3
2017-07-16T04:52:11.906Z,75.8
2017-07-16T04:53:13.247Z,74.7
2017-07-16T04:54:14.590Z,74.5
2017-07-16T04:55:15.939Z,74.3
2017-07-16T04:56:17.286Z,74.2
2017-07-16T04:57:18.634Z,73.6
2017-07-16T04:58:19.977Z,74.5
2017-07-16T04:59:21.318Z,74.9
2017-07-16T05:00:22.658Z,74.7
2017-07-16T05:01:24.661Z,75.4
2017-07-16T05:02:26.008Z,75.6
2017-07-16T05:03:27.357Z,75.0
2017-07-16T05:04:28.700Z,74.9
2017-07-16T05:05:30.044Z,75.3
2017-07-16T05:06:31.384Z,75.8
2017-07-16T05:07:33.514Z,73.9
2017-07-16T05:08:34.871Z,74.5
2017-07-16T05:09:36.778Z,74.4
2017-07-16T05:10:38.121Z,74.9
2017-07-16T05:11:39.471Z,75.9
2017-07-16T05:12:40.820Z,76.3
2017-07-16T05:13:42.162Z,75.8
2017-07-16T05:14:43.505Z,73.8
2017-07-16T05:15:44.853Z,74.5
2017-07-16T05:16:46.187Z,74.9
2017-07-16T05:17:47.535Z,75.0
2017-07-16T05:18:48.880Z,74.6
2017-07-16T05:19:50.224Z,75.1
2017-07-16T05:20:51.565Z,74.0
2017-07-16T05:21:52.914Z,72.8
2017-07-16T05:22:54.260Z,74.0
2017-07-16T05:23:55.601Z,74.2
2017-07-16T05:24:56.950Z,73.6
2017-07-16T05:25:59.213Z,73.7
2017-07-16T05:27:00.557Z,76.0
2017-07-16T05:28:01.902Z,75.6
2017-07-16T05:29:03.244Z,75.7
2017-07-16T05:30:04.587Z,75.4
2017-07-16T05:31:05.939Z,75.0
2017-07-16T05:32:07.282Z,74.4
2017-07-16T05:33:08.629Z,74.0
2017-07-16T05:34:09.984Z,74.1
2017-07-16T05:35:11.327Z,74.3
2017-07-16T05:36:13.310Z,74.4
2017-07-16T05:37:14.662Z,73.5
2017-07-16T05:38:16.009Z,73.7
2017-07-16T05:39:17.360Z,73.5
2017-07-16T05:40:18.708Z,73.7
2017-07-16T05:41:20.056Z,74.4
2017-07-16T05:42:21.400Z,75.5
2017-07-16T05:43:22.742Z,75.0
2017-07-16T05:44:24.086Z,73.7
2017-07-16T05:45:25.429Z,74.4
2017-07-16T05:46:27.636Z,74.1
2017-07-16T05:47:28.074Z,73.0
2017-07-16T05:48:29.420Z,72.7
2017-07-16T05:49:30.766Z,73.7
2017-07-16T05:50:32.106Z,72.6
2017-07-16T05:51:34.196Z,72.6
2017-07-16T05:52:35.539Z,73.0
2017-07-16T05:53:36.887Z,72.8
2017-07-16T05:54:38.236Z,72.2
2017-07-16T05:55:39.582Z,72.7
2017-07-16T05:56:41.711Z,72.8
2017-07-16T05:57:43.050Z,72.8
2017-07-16T05:58:44.395Z,72.9
2017-07-16T05:59:45.740Z,73.0
2017-07-16T06:00:47.086Z,73.1
2017-07-16T06:01:48.435Z,73.0
2017-07-16T06:02:49.780Z,74.7
2017-07-16T06:03:51.126Z,73.9
2017-07-16T06:04:52.471Z,73.7
2017-07-16T06:05:54.467Z,73.1
2017-07-16T06:06:55.812Z,72.8
2017-07-16T06:07:57.165Z,72.9
2017-07-16T06:08:58.509Z,72.7
2017-07-16T06:09:59.890Z,73.6
2017-07-16T06:11:01.205Z,74.0
2017-07-16T06:12:02.549Z,73.9
2017-07-16T06:13:03.902Z,75.1
2017-07-16T06:14:05.250Z,74.2
2017-07-16T06:15:06.588Z,74.3
2017-07-16T06:16:07.937Z,73.8
2017-07-16T06:17:09.282Z,74.0
2017-07-16T06:18:10.624Z,74.6
2017-07-16T06:19:11.969Z,74.0
2017-07-16T06:20:13.314Z,74.2
2017-07-16T06:21:14.662Z,74.6
2017-07-16T06:22:16.006Z,74.1
2017-07-16T06:23:17.350Z,72.9
2017-07-16T06:24:18.699Z,73.0
2017-07-16T06:25:20.042Z,73.9
2017-07-16T06:26:21.388Z,74.9
2017-07-16T06:27:23.408Z,75.3
2017-07-16T06:28:24.755Z,74.9
2017-07-16T06:29:26.098Z,73.9
2017-07-16T06:30:27.445Z,74.2
2017-07-16T06:31:28.819Z,75.1
2017-07-16T06:32:30.172Z,74.5
2017-07-16T06:33:31.511Z,74.2
2017-07-16T06:34:32.864Z,73.6
2017-07-16T06:35:34.837Z,74.8
2017-07-16T06:36:36.182Z,74.6
2017-07-16T06:37:37.527Z,74.0
2017-07-16T06:38:38.878Z,74.9
2017-07-16T06:39:40.217Z,74.2
2017-07-16T06:40:41.562Z,74.3
2017-07-16T06:41:42.910Z,73.6
2017-07-16T06:42:44.270Z,74.0
2017-07-16T06:43:46.141Z,74.7
2017-07-16T06:44:46.925Z,74.8
2017-07-16T06:45:48.272Z,74.7
2017-07-16T06:46:49.617Z,73.7
2017-07-16T06:47:50.966Z,74.0
2017-07-16T06:48:52.311Z,73.8
2017-07-16T06:49:54.453Z,74.4
2017-07-16T06:50:55.801Z,73.7
2017-07-16T06:51:57.149Z,73.1
2017-07-16T06:52:58.500Z,73.1
2017-07-16T06:53:59.848Z,73.7
2017-07-16T06:55:01.187Z,73.8
2017-07-16T06:56:02.529Z,74.7
2017-07-16T06:57:03.876Z,74.6
2017-07-16T06:58:05.222Z,74.0
2017-07-16T06:59:06.571Z,74.2
2017-07-16T07:00:07.943Z,73.8
2017-07-16T07:01:09.263Z,74.4
2017-07-16T07:02:11.213Z,75.2
2017-07-16T07:03:12.558Z,74.1
2017-07-16T07:04:13.902Z,73.8
2017-07-16T07:05:15.247Z,75.1
2017-07-16T07:06:16.595Z,75.0
2017-07-16T07:07:18.798Z,74.6
2017-07-16T07:08:20.145Z,75.2
2017-07-16T07:09:21.491Z,75.2
2017-07-16T07:10:22.839Z,75.0
2017-07-16T07:11:24.195Z,74.5
2017-07-16T07:12:25.541Z,74.6
2017-07-16T07:13:27.504Z,73.7
2017-07-16T07:14:28.856Z,73.9
2017-07-16T07:15:30.200Z,73.7
2017-07-16T07:16:31.549Z,74.4
2017-07-16T07:17:32.892Z,73.6
2017-07-16T07:18:34.239Z,74.3
2017-07-16T07:19:35.584Z,74.2
2017-07-16T07:20:36.931Z,74.2
2017-07-16T07:21:38.278Z,73.6
2017-07-16T07:22:39.623Z,74.7
2017-07-16T07:23:40.972Z,74.7
2017-07-16T07:24:42.320Z,75.0
2017-07-16T07:25:43.671Z,74.4
2017-07-16T07:26:45.019Z,74.8
2017-07-16T07:27:46.370Z,74.8
2017-07-16T07:28:47.720Z,73.4
2017-07-16T07:29:49.640Z,73.1
2017-07-16T07:30:50.992Z,72.9
2017-07-16T07:31:52.342Z,72.4
2017-07-16T07:32:53.685Z,72.9
2017-07-16T07:33:55.590Z,72.3
2017-07-16T07:34:56.941Z,72.6
2017-07-16T07:35:58.292Z,72.7
2017-07-16T07:36:59.634Z,71.8
2017-07-16T07:38:00.979Z,72.4
2017-07-16T07:39:02.325Z,73.3
2017-07-16T07:40:04.397Z,73.0
2017-07-16T07:41:05.751Z,73.3
2017-07-16T07:42:08.016Z,72.4
2017-07-16T07:43:09.363Z,72.0
2017-07-16T07:44:10.720Z,72.4
2017-07-16T07:45:12.576Z,72.5
2017-07-16T07:46:13.921Z,72.8
2017-07-16T07:47:15.272Z,74.1
2017-07-16T07:48:16.619Z,73.6
2017-07-16T07:49:17.961Z,73.6
2017-07-16T07:50:19.318Z,72.9
2017-07-16T07:51:22.162Z,72.6
2017-07-16T07:52:22.520Z,72.4
2017-07-16T07:53:24.472Z,73.2
2017-07-16T07:54:25.822Z,72.6
2017-07-16T07:55:27.168Z,73.0
2017-07-16T07:56:28.516Z,74.2
2017-07-16T07:57:29.866Z,73.6
2017-07-16T07:58:32.154Z,73.4
2017-07-16T07:59:32.517Z,73.8
2017-07-16T08:00:33.866Z,73.8
2017-07-16T08:01:35.213Z,72.6
2017-07-16T08:02:36.558Z,73.2
2017-07-16T08:03:38.540Z,73.3
2017-07-16T08:04:39.889Z,74.2
2017-07-16T08:05:41.235Z,73.8
2017-07-16T08:06:42.580Z,72.8
2017-07-16T08:07:43.922Z,74.1
2017-07-16T08:08:45.271Z,73.9
2017-07-16T08:09:46.622Z,73.6
2017-07-16T08:10:47.967Z,73.7
2017-07-16T08:11:49.313Z,73.8
2017-07-16T08:12:50.660Z,73.7
2017-07-16T08:13:52.003Z,74.0
2017-07-16T08:14:53.347Z,74.7
2017-07-16T08:15:54.695Z,74.2
2017-07-16T08:16:56.045Z,74.3
2017-07-16T08:17:57.411Z,73.7
2017-07-16T08:18:59.658Z,74.8
2017-07-16T08:20:00.064Z,74.9
2017-07-16T08:21:01.408Z,75.4
2017-07-16T08:22:02.760Z,74.0
2017-07-16T08:23:04.101Z,74.3
2017-07-16T08:24:05.448Z,73.9
2017-07-16T08:25:06.794Z,74.6
2017-07-16T08:26:08.145Z,74.6
2017-07-16T08:27:15.486Z,75.3
2017-07-16T08:28:18.777Z,74.9
2017-07-16T08:29:21.431Z,75.8
2017-07-16T08:30:23.696Z,74.4
2017-07-16T08:31:25.088Z,74.6
2017-07-16T08:32:29.998Z,74.8
2017-07-16T08:33:32.303Z,74.7
2017-07-16T08:34:33.868Z,74.1
2017-07-16T08:35:38.572Z,73.9
2017-07-16T08:36:40.730Z,73.9
2017-07-16T08:37:42.422Z,74.1
2017-07-16T08:38:44.073Z,74.2
2017-07-16T08:39:46.659Z,74.0
2017-07-16T08:40:48.347Z,74.3
2017-07-16T08:41:50.171Z,73.6
2017-07-16T08:42:52.990Z,74.7
2017-07-16T08:43:55.126Z,73.6
2017-07-16T08:44:57.101Z,73.6
2017-07-16T08:46:00.838Z,73.6
2017-07-16T08:47:03.771Z,73.8
2017-07-16T08:48:07.539Z,74.1
2017-07-16T08:49:09.842Z,73.7
2017-07-16T08:50:11.999Z,73.0
2017-07-16T08:51:14.411Z,73.9
2017-07-16T08:52:17.024Z,74.4
2017-07-16T08:53:20.061Z,74.5
2017-07-16T08:54:23.008Z,74.3
2017-07-16T08:55:26.019Z,74.2
2017-07-16T08:56:28.941Z,74.2
2017-07-16T08:57:31.880Z,74.0
2017-07-16T08:58:34.253Z,73.1
2017-07-16T08:59:36.139Z,73.4
2017-07-16T09:00:38.649Z,73.2
2017-07-16T09:01:41.468Z,73.0
2017-07-16T09:02:43.521Z,74.1
2017-07-16T09:03:45.494Z,74.2
2017-07-16T09:04:47.316Z,74.5
2017-07-16T09:05:49.707Z,73.3
2017-07-16T09:06:53.255Z,73.0
2017-07-16T09:07:56.171Z,72.4
2017-07-16T09:08:58.383Z,72.5
2017-07-16T09:10:01.400Z,73.5
2017-07-16T09:11:03.824Z,73.6
2017-07-16T09:12:07.062Z,73.1
2017-07-16T09:13:08.888Z,72.9
2017-07-16T09:14:11.866Z,73.2
2017-07-16T09:15:15.588Z,72.7
2017-07-16T09:16:17.964Z,73.3
2017-07-16T09:17:20.404Z,72.6
2017-07-16T09:18:22.066Z,72.3
2017-07-16T09:19:24.103Z,71.3
2017-07-16T09:20:26.557Z,73.2
2017-07-16T09:21:29.529Z,71.9
2017-07-16T09:22:31.772Z,72.2
2017-07-16T09:23:34.925Z,71.9
2017-07-16T09:24:36.245Z,71.2
2017-07-16T09:25:38.050Z,71.4
2017-07-16T09:26:39.917Z,70.8
2017-07-16T09:27:41.673Z,71.1
2017-07-16T09:28:43.286Z,72.6
2017-07-16T09:29:46.357Z,71.3
2017-07-16T09:30:48.476Z,72.7
2017-07-16T09:31:51.035Z,72.9
2017-07-16T09:32:53.201Z,71.4
2017-07-16T09:33:55.974Z,71.7
2017-07-16T09:34:58.338Z,71.8
2017-07-16T09:36:00.746Z,71.2
2017-07-16T09:37:03.575Z,72.9
2017-07-16T09:38:05.955Z,72.8
2017-07-16T09:39:12.153Z,73.2
2017-07-16T09:40:14.366Z,73.2
2017-07-16T09:41:18.036Z,73.3
2017-07-16T09:42:20.271Z,73.3
2017-07-16T09:43:26.226Z,72.4
2017-07-16T09:44:27.998Z,72.7
2017-07-16T09:45:29.621Z,72.7
2017-07-16T09:46:33.674Z,73.2
2017-07-16T09:47:36.325Z,73.0
2017-07-16T09:48:39.153Z,73.1
2017-07-16T09:49:42.107Z,72.2
2017-07-16T09:50:45.802Z,72.7
2017-07-16T09:51:47.632Z,72.9
2017-07-16T09:52:49.685Z,72.7
2017-07-16T09:53:52.249Z,72.8
2017-07-16T09:54:55.472Z,72.9
2017-07-16T09:55:57.514Z,72.5
2017-07-16T09:56:59.854Z,72.6
2017-07-16T09:58:02.284Z,72.5
2017-07-16T09:59:04.673Z,72.7
2017-07-16T10:00:06.966Z,72.4
2017-07-16T10:01:10.913Z,71.3
2017-07-16T10:02:14.153Z,71.2
2017-07-16T10:03:16.461Z,71.3
2017-07-16T10:04:19.224Z,72.8
2017-07-16T10:05:21.220Z,72.2
2017-07-16T10:06:25.008Z,71.4
2017-07-16T10:07:27.986Z,71.4
2017-07-16T10:08:31.621Z,71.9
2017-07-16T10:09:34.309Z,71.3
2017-07-16T10:10:37.437Z,71.1
2017-07-16T10:11:39.913Z,71.6
2017-07-16T10:12:42.323Z,71.7
2017-07-16T10:13:44.625Z,71.9
2017-07-16T10:14:46.287Z,72.2
2017-07-16T10:15:49.014Z,71.4
2017-07-16T10:16:51.922Z,71.4
2017-07-16T10:17:53.497Z,71.9
2017-07-16T10:18:56.270Z,71.3
2017-07-16T10:19:58.237Z,71.4
2017-07-16T10:21:00.597Z,71.4
2017-07-16T10:22:02.782Z,71.9
2017-07-16T10:23:06.662Z,72.8
2017-07-16T10:24:08.934Z,73.5
2017-07-16T10:25:11.870Z,72.7
2017-07-16T10:26:15.038Z,73.8
2017-07-16T10:27:17.763Z,73.5
2017-07-16T10:28:20.068Z,74.3
2017-07-16T10:29:22.000Z,74.1
2017-07-16T10:30:24.126Z,75.1
2017-07-16T10:31:26.795Z,75.8
2017-07-16T10:32:29.480Z,75.8
2017-07-16T10:33:32.281Z,76.4
2017-07-16T10:34:33.574Z,75.9
2017-07-16T10:35:35.484Z,76.4
2017-07-16T10:36:37.930Z,76.0
2017-07-16T10:37:40.740Z,76.8
2017-07-16T10:38:43.397Z,77.1
2017-07-16T10:39:47.330Z,77.0
2017-07-16T10:40:49.371Z,76.8
2017-07-16T10:41:51.006Z,77.3
2017-07-16T10:42:53.265Z,76.7
2017-07-16T10:43:55.518Z,76.9
2017-07-16T10:44:57.973Z,76.3
2017-07-16T10:46:00.925Z,76.2
2017-07-16T10:47:05.080Z,76.1
2017-07-16T10:48:08.099Z,76.9
2017-07-16T10:49:10.462Z,76.9
2017-07-16T10:50:12.692Z,77.1
2017-07-16T10:51:15.718Z,76.9
2017-07-16T10:52:18.043Z,75.9
2017-07-16T10:53:20.574Z,76.6
2017-07-16T10:54:24.294Z,75.7
2017-07-16T10:55:27.129Z,76.4
2017-07-16T10:56:31.471Z,75.8
2017-07-16T10:57:38.535Z,76.7
2017-07-16T10:58:44.030Z,75.5
2017-07-16T10:59:46.092Z,75.5
2017-07-16T11:00:48.689Z,75.1
2017-07-16T11:01:51.363Z,75.8
2017-07-16T11:02:54.562Z,75.1
2017-07-16T11:03:57.624Z,75.3
2017-07-16T11:05:01.019Z,75.4
2017-07-16T11:06:03.963Z,75.4
2017-07-16T11:07:05.945Z,74.8
2017-07-16T11:08:08.641Z,74.8
2017-07-16T11:09:12.720Z,74.8
2017-07-16T11:10:14.685Z,75.5
2017-07-16T11:11:20.512Z,74.9
2017-07-16T11:12:22.366Z,73.9
2017-07-16T11:13:25.297Z,73.9
2017-07-16T11:14:27.077Z,73.4
2017-07-16T11:15:29.403Z,74.1
2017-07-16T11:16:31.445Z,74.4
2017-07-16T11:17:33.722Z,75.4
2017-07-16T11:18:36.335Z,75.2
2017-07-16T11:19:39.054Z,74.3
2017-07-16T11:20:41.342Z,74.1
2017-07-16T11:21:43.691Z,74.3
2017-07-16T11:22:45.655Z,73.7
2017-07-16T11:23:47.664Z,74.3
2017-07-16T11:24:50.091Z,74.3
2017-07-16T11:25:52.504Z,74.9
2017-07-16T11:26:54.693Z,73.9
2017-07-16T11:27:57.499Z,74.1
2017-07-16T11:29:00.397Z,74.1
2017-07-16T11:30:03.948Z,74.4
2017-07-16T11:31:07.695Z,74.9
2017-07-16T11:32:11.210Z,74.9
2017-07-16T11:33:14.156Z,73.9
2017-07-16T11:34:16.718Z,75.2
2017-07-16T11:35:19.300Z,74.5
2017-07-16T11:36:22.051Z,74.2
2017-07-16T11:37:25.315Z,74.1
2017-07-16T11:38:29.861Z,74.1
2017-07-16T11:39:34.604Z,74.4
2017-07-16T11:40:36.884Z,74.3
2017-07-16T11:41:38.500Z,74.6
2017-07-16T11:42:40.486Z,73.9
2017-07-16T11:43:42.940Z,72.8
2017-07-16T11:44:45.282Z,73.9
2017-07-16T11:45:47.637Z,73.0
2017-07-16T11:46:48.988Z,72.8
2017-07-16T11:47:51.690Z,72.9
2017-07-16T11:48:52.600Z,73.2
2017-07-16T11:49:54.197Z,72.9
2017-07-16T11:50:57.866Z,73.8
2017-07-16T11:52:02.210Z,74.0
2017-07-16T11:53:04.572Z,74.3
2017-07-16T11:54:06.744Z,74.1
2017-07-16T11:55:09.179Z,73.0
2017-07-16T11:56:11.505Z,72.9
2017-07-16T11:57:13.196Z,72.8
2017-07-16T11:58:14.608Z,74.1
2017-07-16T11:59:17.763Z,73.6
2017-07-16T12:00:23.842Z,72.8
2017-07-16T12:01:26.754Z,71.4
2017-07-16T12:02:32.697Z,71.5
2017-07-16T12:03:34.191Z,71.4
2017-07-16T12:04:36.815Z,71.4
2017-07-16T12:05:41.533Z,71.3
2017-07-16T12:06:44.873Z,71.1
2017-07-16T12:07:48.906Z,70.2
2017-07-16T12:08:52.196Z,69.6
2017-07-16T12:09:54.938Z,69.5
2017-07-16T12:10:57.284Z,68.8
2017-07-16T12:12:01.903Z,67.6
2017-07-16T12:13:03.605Z,69.2
2017-07-16T12:14:07.726Z,69.5
2017-07-16T12:15:09.970Z,70.4
2017-07-16T12:16:11.765Z,70.3
2017-07-16T12:17:13.753Z,70.6
2017-07-16T12:18:15.357Z,72.3
2017-07-16T12:19:17.444Z,71.3
2017-07-16T12:20:19.177Z,71.2
2017-07-16T12:21:21.658Z,71.4
2017-07-16T12:22:25.768Z,70.5
2017-07-16T12:23:28.457Z,70.9
2017-07-16T12:24:30.695Z,71.2
2017-07-16T12:25:32.674Z,70.9
2017-07-16T12:26:35.379Z,70.8
2017-07-16T12:27:37.415Z,70.2
2017-07-16T12:28:40.292Z,70.2
2017-07-16T12:29:42.748Z,69.9
2017-07-16T12:30:45.036Z,67.7
2017-07-16T12:32:28.490Z,65.9
2017-07-16T12:33:31.994Z,65.6
2017-07-16T12:34:33.657Z,65.9
2017-07-16T12:35:36.116Z,66.0
2017-07-16T12:36:39.064Z,66.2
2017-07-16T12:37:41.328Z,65.8
2017-07-16T12:38:43.562Z,68.2
2017-07-16T12:39:45.550Z,68.8
2017-07-16T12:40:46.987Z,69.4
2017-07-16T12:41:49.186Z,68.3
2017-07-16T12:42:51.101Z,68.3
2017-07-16T12:43:52.610Z,68.2
2017-07-16T12:44:54.300Z,70.2
2017-07-16T12:45:58.453Z,69.6
2017-07-16T12:46:59.831Z,69.9
2017-07-16T12:48:01.581Z,69.7
2017-07-16T12:49:02.958Z,70.5
2017-07-16T12:50:04.309Z,70.2
2017-07-16T12:51:05.984Z,68.8
2017-07-16T12:52:07.339Z,69.5
2017-07-16T12:53:08.695Z,68.4
2017-07-16T12:54:10.058Z,69.6
2017-07-16T12:55:11.401Z,69.2
2017-07-16T12:56:12.749Z,69.2
2017-07-16T12:57:14.097Z,69.3
2017-07-16T12:58:15.481Z,70.1
2017-07-16T12:59:16.831Z,69.6
2017-07-16T13:00:19.225Z,69.5
2017-07-16T13:01:20.600Z,70.8
2017-07-16T13:02:21.951Z,70.5
2017-07-16T13:03:24.068Z,70.9
2017-07-16T13:04:25.418Z,70.1
2017-07-16T13:05:27.558Z,71.0
2017-07-16T13:06:28.898Z,71.5
2017-07-16T13:07:30.252Z,71.3
2017-07-16T13:08:31.601Z,70.9
2017-07-16T13:09:32.946Z,70.0
2017-07-16T13:10:34.299Z,69.6
2017-07-16T13:11:36.796Z,70.4
2017-07-16T13:12:38.142Z,70.0
2017-07-16T13:13:39.493Z,69.6
2017-07-16T13:14:40.842Z,70.7
2017-07-16T13:15:42.192Z,69.4
2017-07-16T13:16:43.582Z,69.9
2017-07-16T13:17:44.965Z,69.3
2017-07-16T13:18:46.314Z,70.4
2017-07-16T13:19:47.698Z,70.7
2017-07-16T13:20:49.056Z,69.5
2017-07-16T13:21:50.414Z,70.5
2017-07-16T13:22:52.503Z,70.0
2017-07-16T13:23:53.843Z,69.4
2017-07-16T13:24:55.437Z,70.7
2017-07-16T13:25:56.792Z,70.5
2017-07-16T13:26:58.140Z,70.9
2017-07-16T13:28:01.137Z,72.2
2017-07-16T13:29:02.513Z,71.9
2017-07-16T13:30:03.858Z,71.7
2017-07-16T13:31:05.204Z,71.4
2017-07-16T13:32:06.552Z,70.8
2017-07-16T13:33:07.911Z,71.7
2017-07-16T13:34:09.259Z,72.0
2017-07-16T13:35:10.612Z,71.4
2017-07-16T13:36:12.578Z,72.3
2017-07-16T13:37:13.927Z,71.4
2017-07-16T13:38:15.273Z,71.4
2017-07-16T13:39:16.622Z,71.4
2017-07-16T13:40:17.971Z,71.9
2017-07-16T13:41:19.328Z,71.5
2017-07-16T13:42:20.678Z,72.1
2017-07-16T13:43:22.031Z,72.7